createdAt,value
2019-06-01T00:02:11.352Z,95731.39
2019-06-01T00:04:40.904Z,95732.75
2019-06-01T00:07:09.931Z,95729.59
2019-06-01T00:09:39.034Z,95730.07
2019-06-01T00:12:07.923Z,95735.77
2019-06-01T00:14:36.863Z,95732.97
2019-06-01T00:17:05.809Z,95730.52
2019-06-01T00:19:34.757Z,95727.97
2019-06-01T00:22:03.694Z,95726.63
2019-06-01T00:24:32.671Z,95728.20
2019-06-01T00:27:01.636Z,95730.63
2019-06-01T00:29:30.502Z,95728.39
2019-06-01T00:31:59.530Z,95722.49
2019-06-01T00:34:28.497Z,95729.55
2019-06-01T00:36:57.498Z,95720.20
2019-06-01T00:39:26.828Z,95726.94
2019-06-01T00:41:55.796Z,95725.47
2019-06-01T00:44:24.761Z,95729.70
2019-06-01T00:46:53.736Z,95729.79
2019-06-01T00:49:22.983Z,95727.24
2019-06-01T00:51:52.431Z,95724.05
2019-06-01T00:54:22.763Z,95725.55
2019-06-01T00:56:51.780Z,95719.55
2019-06-01T00:59:20.703Z,95720.59
2019-06-01T01:01:50.109Z,95722.91
2019-06-01T01:04:19.038Z,95724.48
2019-06-01T01:06:49.191Z,95717.10
2019-06-01T01:09:19.302Z,95719.55
2019-06-01T01:11:49.227Z,95721.50
2019-06-01T01:14:18.097Z,95726.22
2019-06-01T01:16:47.442Z,95728.56
2019-06-01T01:19:16.348Z,95722.38
2019-06-01T01:21:46.048Z,95720.45
2019-06-01T01:24:14.927Z,95725.13
2019-06-01T01:26:43.920Z,95726.84
2019-06-01T01:29:12.884Z,95727.33
2019-06-01T01:31:42.173Z,95732.36
2019-06-01T01:34:11.148Z,95728.37
2019-06-01T01:36:40.175Z,95729.49
2019-06-01T01:39:09.151Z,95726.59
2019-06-01T01:41:38.061Z,95724.98
2019-06-01T01:44:07.295Z,95732.77
2019-06-01T01:46:36.349Z,95724.06
2019-06-01T01:49:05.366Z,95724.91
2019-06-01T01:51:34.244Z,95713.75
2019-06-01T01:54:04.543Z,95722.48
2019-06-01T01:56:33.593Z,95721.30
2019-06-01T01:59:04.286Z,95724.66
2019-06-01T02:01:33.577Z,95720.95
2019-06-01T02:04:03.329Z,95725.23
2019-06-01T02:06:32.378Z,95724.02
2019-06-01T02:09:01.852Z,95723.09
2019-06-01T02:11:30.898Z,95717.99
2019-06-01T02:14:00.037Z,95726.27
2019-06-01T02:16:29.125Z,95725.14
2019-06-01T02:18:58.902Z,95730.13
2019-06-01T02:21:28.163Z,95731.55
2019-06-01T02:23:57.058Z,95723.44
2019-06-01T02:26:26.220Z,95720.61
2019-06-01T02:28:55.344Z,95723.05
2019-06-01T02:31:39.851Z,95716.66
2019-06-01T02:33:56.309Z,95718.06
2019-06-01T02:36:26.034Z,95718.98
2019-06-01T02:38:56.423Z,95723.93
2019-06-01T02:41:25.503Z,95720.88
2019-06-01T02:43:54.813Z,95717.41
2019-06-01T02:46:23.839Z,95715.58
2019-06-01T02:48:53.034Z,95716.17
2019-06-01T02:51:22.124Z,95709.45
2019-06-01T02:53:50.993Z,95699.45
2019-06-01T02:56:20.005Z,95704.87
2019-06-01T02:58:48.952Z,95704.77
2019-06-01T03:01:38.178Z,95701.63
2019-06-01T03:04:08.864Z,95699.97
2019-06-01T03:06:39.034Z,95701.36
2019-06-01T03:09:09.133Z,95701.43
2019-06-01T03:11:39.578Z,95701.89
2019-06-01T03:14:09.634Z,95703.64
2019-06-01T03:16:40.352Z,95705.30
2019-06-01T03:19:09.491Z,95697.27
2019-06-01T03:21:38.472Z,95703.28
2019-06-01T03:24:09.753Z,95706.48
2019-06-01T03:26:43.257Z,95704.73
2019-06-01T03:29:17.496Z,95709.77
2019-06-01T03:31:46.500Z,95712.11
2019-06-01T03:34:15.439Z,95716.05
2019-06-01T03:36:44.452Z,95712.25
2019-06-01T03:39:13.498Z,95712.73
2019-06-01T03:41:42.596Z,95710.32
2019-06-01T03:44:12.941Z,95705.98
2019-06-01T03:46:41.939Z,95701.84
2019-06-01T03:49:11.966Z,95698.84
2019-06-01T03:51:40.887Z,95699.43
2019-06-01T03:54:10.125Z,95703.59
2019-06-01T03:56:39.289Z,95705.86
2019-06-01T03:59:09.340Z,95706.86
2019-06-01T04:01:38.633Z,95702.16
2019-06-01T04:04:07.607Z,95705.62
2019-06-01T04:06:36.681Z,95708.80
2019-06-01T04:09:07.850Z,95710.80
2019-06-01T04:11:36.895Z,95712.19
2019-06-01T04:14:07.603Z,95707.41
2019-06-01T04:16:36.730Z,95715.28
2019-06-01T04:19:06.047Z,95708.31
2019-06-01T04:21:35.130Z,95717.77
2019-06-01T04:24:04.160Z,95715.72
2019-06-01T04:26:33.099Z,95710.96
2019-06-01T04:29:02.352Z,95703.84
2019-06-01T04:31:31.369Z,95713.02
2019-06-01T04:34:00.338Z,95712.80
2019-06-01T04:36:29.336Z,95713.76
2019-06-01T04:38:58.209Z,95714.09
2019-06-01T04:41:27.145Z,95717.77
2019-06-01T04:43:56.498Z,95716.83
2019-06-01T04:46:25.531Z,95720.72
2019-06-01T04:48:54.617Z,95726.38
2019-06-01T04:51:23.585Z,95723.80
2019-06-01T04:53:52.561Z,95724.78
2019-06-01T04:56:21.561Z,95727.10
2019-06-01T04:58:50.452Z,95720.26
2019-06-01T05:01:19.489Z,95716.44
2019-06-01T05:03:48.735Z,95725.30
2019-06-01T05:06:17.666Z,95719.31
2019-06-01T05:08:46.595Z,95721.96
2019-06-01T05:11:15.811Z,95716.92
2019-06-01T05:13:44.648Z,95711.78
2019-06-01T05:16:14.888Z,95717.55
2019-06-01T05:18:44.276Z,95710.43
2019-06-01T05:21:14.994Z,95718.52
2019-06-01T05:23:44.119Z,95717.33
2019-06-01T05:26:13.285Z,95716.34
2019-06-01T05:28:42.164Z,95709.81
2019-06-01T05:31:14.921Z,95708.83
2019-06-01T05:33:42.727Z,95703.94
2019-06-01T05:36:12.046Z,95708.87
2019-06-01T05:38:41.026Z,95703.92
2019-06-01T05:41:11.566Z,95709.66
2019-06-01T05:43:40.919Z,95715.09
2019-06-01T05:46:09.946Z,95711.34
2019-06-01T05:48:38.978Z,95712.77
2019-06-01T05:51:07.914Z,95706.61
2019-06-01T05:53:36.869Z,95709.94
2019-06-01T05:56:06.047Z,95705.30
2019-06-01T05:58:35.090Z,95706.39
2019-06-01T06:01:05.214Z,95714.67
2019-06-01T06:03:40.419Z,95709.70
2019-06-01T06:06:05.090Z,95711.48
2019-06-01T06:08:34.086Z,95711.13
2019-06-01T06:11:02.999Z,95708.70
2019-06-01T06:13:32.100Z,95702.98
2019-06-01T06:16:01.132Z,95707.09
2019-06-01T06:18:30.052Z,95697.45
2019-06-01T06:20:59.095Z,95697.17
2019-06-01T06:23:28.462Z,95700.69
2019-06-01T06:25:57.455Z,95699.06
2019-06-01T06:28:26.824Z,95700.73
2019-06-01T06:30:56.086Z,95694.23
2019-06-01T06:33:25.111Z,95698.48
2019-06-01T06:35:54.191Z,95692.70
2019-06-01T06:38:24.072Z,95690.31
2019-06-01T06:40:53.124Z,95695.55
2019-06-01T06:43:29.714Z,95695.68
2019-06-01T06:45:53.072Z,95686.80
2019-06-01T06:48:23.305Z,95688.85
2019-06-01T06:50:52.397Z,95690.34
2019-06-01T06:53:29.832Z,95680.70
2019-06-01T06:55:52.347Z,95680.96
2019-06-01T06:58:22.466Z,95690.02
2019-06-01T07:00:51.523Z,95684.72
2019-06-01T07:03:21.082Z,95677.88
2019-06-01T07:05:50.051Z,95689.74
2019-06-01T07:08:19.700Z,95687.20
2019-06-01T07:10:48.848Z,95691.38
2019-06-01T07:13:17.827Z,95690.66
2019-06-01T07:15:46.837Z,95690.66
2019-06-01T07:18:15.829Z,95696.63
2019-06-01T07:20:44.849Z,95692.70
2019-06-01T07:23:14.913Z,95701.02
2019-06-01T07:25:43.984Z,95696.38
2019-06-01T07:28:12.951Z,95700.86
2019-06-01T07:30:50.506Z,95705.00
2019-06-01T07:33:12.668Z,95693.47
2019-06-01T07:35:41.579Z,95689.25
2019-06-01T07:38:10.587Z,95687.41
2019-06-01T07:40:39.578Z,95685.57
2019-06-01T07:43:08.658Z,95690.21
2019-06-01T07:45:37.616Z,95693.44
2019-06-01T07:48:06.564Z,95697.11
2019-06-01T07:50:35.538Z,95695.98
2019-06-01T07:53:04.557Z,95691.17
2019-06-01T07:55:33.525Z,95691.82
2019-06-01T07:58:02.820Z,95693.84
2019-06-01T08:00:33.050Z,95691.28
2019-06-01T08:03:02.241Z,95685.54
2019-06-01T08:05:32.185Z,95680.72
2019-06-01T08:08:01.268Z,95689.72
2019-06-01T08:10:31.540Z,95692.19
2019-06-01T08:13:00.758Z,95687.98
2019-06-01T08:15:29.882Z,95687.70
2019-06-01T08:17:58.993Z,95683.63
2019-06-01T08:20:28.713Z,95691.27
2019-06-01T08:22:58.054Z,95689.13
2019-06-01T08:25:28.469Z,95692.52
2019-06-01T08:27:57.674Z,95682.23
2019-06-01T08:30:26.686Z,95687.37
2019-06-01T08:32:55.662Z,95679.78
2019-06-01T08:35:24.925Z,95678.83
2019-06-01T08:37:54.005Z,95677.30
2019-06-01T08:40:23.435Z,95675.23
2019-06-01T08:42:52.403Z,95677.11
2019-06-01T08:45:21.502Z,95672.75
2019-06-01T08:47:50.414Z,95679.47
2019-06-01T08:50:19.384Z,95671.56
2019-06-01T08:52:48.455Z,95667.97
2019-06-01T08:55:18.019Z,95673.38
2019-06-01T08:57:46.887Z,95667.77
2019-06-01T09:00:16.227Z,95666.28
2019-06-01T09:02:45.167Z,95656.41
2019-06-01T09:05:24.020Z,95661.07
2019-06-01T09:07:44.884Z,95658.48
2019-06-01T09:10:13.965Z,95655.45
2019-06-01T09:12:42.855Z,95650.06
2019-06-01T09:15:12.303Z,95656.32
2019-06-01T09:17:41.479Z,95655.59
2019-06-01T09:20:10.447Z,95656.63
2019-06-01T09:22:39.542Z,95650.80
2019-06-01T09:25:08.668Z,95648.09
2019-06-01T09:27:37.661Z,95649.57
2019-06-01T09:30:07.049Z,95650.33
2019-06-01T09:32:36.510Z,95649.82
2019-06-01T09:35:05.720Z,95648.84
2019-06-01T09:37:35.036Z,95647.89
2019-06-01T09:40:04.185Z,95646.23
2019-06-01T09:42:33.423Z,95650.97
2019-06-01T09:45:02.793Z,95655.36
2019-06-01T09:47:31.757Z,95649.78
2019-06-01T09:50:00.732Z,95641.78
2019-06-01T09:52:29.810Z,95648.55
2019-06-01T09:54:58.883Z,95642.41
2019-06-01T09:57:27.948Z,95643.07
2019-06-01T09:59:56.870Z,95648.93
2019-06-01T10:02:25.905Z,95641.70
2019-06-01T10:04:54.864Z,95645.70
2019-06-01T10:07:24.208Z,95637.45
2019-06-01T10:09:53.196Z,95639.77
2019-06-01T10:12:22.543Z,95636.02
2019-06-01T10:14:51.368Z,95633.93
2019-06-01T10:17:20.437Z,95627.16
2019-06-01T10:19:49.349Z,95632.34
2019-06-01T10:22:18.318Z,95635.64
2019-06-01T10:24:48.288Z,95631.36
2019-06-01T10:27:17.780Z,95645.33
2019-06-01T10:29:46.706Z,95634.92
2019-06-01T10:32:15.721Z,95635.70
2019-06-01T10:34:44.787Z,95636.55
2019-06-01T10:37:13.696Z,95632.52
2019-06-01T10:39:42.767Z,95632.25
2019-06-01T10:42:11.800Z,95634.47
2019-06-01T10:44:45.185Z,95639.28
2019-06-01T10:47:11.543Z,95630.72
2019-06-01T10:49:40.514Z,95629.44
2019-06-01T10:52:09.479Z,95624.52
2019-06-01T10:54:38.695Z,95623.11
2019-06-01T10:57:07.730Z,95619.27
2019-06-01T10:59:36.723Z,95611.14
2019-06-01T11:02:05.715Z,95617.63
2019-06-01T11:04:34.963Z,95617.97
2019-06-01T11:07:04.030Z,95612.77
2019-06-01T11:09:33.085Z,95608.33
2019-06-01T11:12:02.162Z,95613.42
2019-06-01T11:14:31.050Z,95610.91
2019-06-01T11:17:00.475Z,95610.52
2019-06-01T11:19:30.468Z,95602.33
2019-06-01T11:21:59.489Z,95596.78
2019-06-01T11:24:29.423Z,95609.22
2019-06-01T11:26:58.523Z,95602.37
2019-06-01T11:29:27.477Z,95607.09
2019-06-01T11:31:56.584Z,95613.08
2019-06-01T11:34:25.648Z,95612.95
2019-06-01T11:37:06.385Z,95611.78
2019-06-01T11:39:25.323Z,95610.68
2019-06-01T11:41:54.318Z,95605.92
2019-06-01T11:44:23.409Z,95600.36
2019-06-01T11:46:52.639Z,95603.98
2019-06-01T11:49:21.658Z,95595.83
2019-06-01T11:51:50.671Z,95595.09
2019-06-01T11:54:19.613Z,95580.84
2019-06-01T11:56:48.733Z,95582.02
2019-06-01T11:59:21.133Z,95579.73
2019-06-01T12:01:48.401Z,95582.02
2019-06-01T12:04:18.423Z,95585.84
2019-06-01T12:06:47.435Z,95586.85
2019-06-01T12:09:16.326Z,95583.75
2019-06-01T12:11:48.077Z,95586.73
2019-06-01T12:14:17.060Z,95580.04
2019-06-01T12:16:46.778Z,95579.33
2019-06-01T12:19:15.784Z,95573.41
2019-06-01T12:21:45.223Z,95569.25
2019-06-01T12:24:14.174Z,95567.26
2019-06-01T12:26:43.505Z,95563.83
2019-06-01T12:29:12.490Z,95565.65
2019-06-01T12:31:41.724Z,95564.14
2019-06-01T12:34:10.625Z,95565.55
2019-06-01T12:36:41.025Z,95560.38
2019-06-01T12:39:10.406Z,95558.20
2019-06-01T12:41:39.820Z,95557.86
2019-06-01T12:44:15.649Z,95558.88
2019-06-01T12:46:44.601Z,95546.91
2019-06-01T12:49:13.673Z,95553.22
2019-06-01T12:51:42.714Z,95548.47
2019-06-01T12:54:11.684Z,95553.43
2019-06-01T12:56:40.884Z,95551.55
2019-06-01T12:59:09.898Z,95549.89
2019-06-01T13:01:39.035Z,95540.94
2019-06-01T13:04:08.304Z,95537.28
2019-06-01T13:06:37.376Z,95534.86
2019-06-01T13:09:08.129Z,95536.13
2019-06-01T13:11:37.314Z,95537.93
2019-06-01T13:14:07.259Z,95536.22
2019-06-01T13:16:36.426Z,95526.06
2019-06-01T13:19:05.880Z,95525.52
2019-06-01T13:21:34.840Z,95523.22
2019-06-01T13:24:03.941Z,95516.22
2019-06-01T13:26:33.029Z,95513.93
2019-06-01T13:29:01.987Z,95508.55
2019-06-01T13:31:30.997Z,95504.48
2019-06-01T13:34:00.003Z,95510.55
2019-06-01T13:36:28.923Z,95508.89
2019-06-01T13:38:57.922Z,95509.22
2019-06-01T13:41:26.897Z,95509.41
2019-06-01T13:43:55.926Z,95501.97
2019-06-01T13:46:24.982Z,95503.73
2019-06-01T13:48:54.377Z,95503.91
2019-06-01T13:51:23.296Z,95503.33
2019-06-01T13:53:52.914Z,95502.54
2019-06-01T13:56:21.897Z,95502.81
2019-06-01T13:58:50.970Z,95503.44
2019-06-01T14:01:19.971Z,95504.22
2019-06-01T14:03:49.437Z,95499.54
2019-06-01T14:06:18.403Z,95497.72
2019-06-01T14:08:47.295Z,95495.00
2019-06-01T14:11:16.270Z,95494.69
2019-06-01T14:13:45.360Z,95493.22
2019-06-01T14:16:14.318Z,95489.37
2019-06-01T14:18:43.333Z,95489.52
2019-06-01T14:21:12.325Z,95494.92
2019-06-01T14:23:41.319Z,95494.36
2019-06-01T14:26:10.282Z,95497.59
2019-06-01T14:28:39.382Z,95491.44
2019-06-01T14:31:08.403Z,95489.20
2019-06-01T14:33:37.427Z,95484.99
2019-06-01T14:36:06.563Z,95484.53
2019-06-01T14:38:46.493Z,95486.98
2019-06-01T14:41:06.328Z,95482.55
2019-06-01T14:43:35.336Z,95480.69
2019-06-01T14:46:04.406Z,95480.75
2019-06-01T14:48:33.549Z,95470.94
2019-06-01T14:51:02.615Z,95475.01
2019-06-01T14:53:31.518Z,95466.63
2019-06-01T14:56:00.643Z,95466.29
2019-06-01T14:58:29.719Z,95467.13
2019-06-01T15:00:58.813Z,95472.31
2019-06-01T15:03:27.749Z,95470.82
2019-06-01T15:05:57.014Z,95462.95
2019-06-01T15:08:26.007Z,95464.80
2019-06-01T15:10:55.669Z,95462.92
2019-06-01T15:13:26.018Z,95461.78
2019-06-01T15:15:55.624Z,95458.42
2019-06-01T15:18:24.610Z,95458.23
2019-06-01T15:20:53.838Z,95457.10
2019-06-01T15:23:22.797Z,95453.20
2019-06-01T15:25:52.379Z,95445.73
2019-06-01T15:28:21.432Z,95452.80
2019-06-01T15:30:50.850Z,95448.03
2019-06-01T15:33:19.688Z,95456.05
2019-06-01T15:35:48.605Z,95449.92
2019-06-01T15:38:17.505Z,95450.17
2019-06-01T15:40:46.400Z,95449.44
2019-06-01T15:43:15.314Z,95449.25
2019-06-01T15:45:44.773Z,95447.80
2019-06-01T15:48:14.801Z,95455.27
2019-06-01T15:50:43.856Z,95451.66
2019-06-01T15:53:12.905Z,95447.38
2019-06-01T15:55:41.800Z,95449.81
2019-06-01T15:58:10.822Z,95441.48
2019-06-01T16:00:39.856Z,95439.72
2019-06-01T16:03:08.760Z,95447.09
2019-06-01T16:05:37.761Z,95443.42
2019-06-01T16:08:06.688Z,95439.41
2019-06-01T16:10:35.782Z,95443.44
2019-06-01T16:13:05.015Z,95445.50
2019-06-01T16:15:34.228Z,95445.05
2019-06-01T16:18:04.281Z,95448.42
2019-06-01T16:20:33.298Z,95450.35
2019-06-01T16:23:02.560Z,95449.45
2019-06-01T16:25:31.672Z,95447.84
2019-06-01T16:28:01.019Z,95444.34
2019-06-01T16:30:30.041Z,95442.36
2019-06-01T16:32:59.042Z,95446.09
2019-06-01T16:35:27.921Z,95439.78
2019-06-01T16:37:56.909Z,95442.91
2019-06-01T16:40:25.883Z,95442.25
2019-06-01T16:42:55.347Z,95449.96
2019-06-01T16:45:24.736Z,95449.94
2019-06-01T16:47:55.363Z,95448.92
2019-06-01T16:50:24.454Z,95450.66
2019-06-01T16:52:53.446Z,95450.94
2019-06-01T16:55:22.414Z,95443.48
2019-06-01T16:57:51.682Z,95443.44
2019-06-01T17:00:20.867Z,95450.81
2019-06-01T17:02:50.000Z,95445.11
2019-06-01T17:05:18.975Z,95442.27
2019-06-01T17:07:47.975Z,95445.41
2019-06-01T17:10:25.741Z,95439.08
2019-06-01T17:12:47.996Z,95435.58
2019-06-01T17:15:17.640Z,95432.84
2019-06-01T17:17:46.671Z,95433.64
2019-06-01T17:20:50.497Z,95436.69
2019-06-01T17:23:29.357Z,95436.52
2019-06-01T17:25:50.462Z,95435.98
2019-06-01T17:28:19.678Z,95436.34
2019-06-01T17:30:50.271Z,95435.25
2019-06-01T17:33:19.361Z,95438.39
2019-06-01T17:35:48.257Z,95439.81
2019-06-01T17:38:17.276Z,95435.64
2019-06-01T17:40:46.331Z,95442.54
2019-06-01T17:43:15.300Z,95437.72
2019-06-01T17:45:44.312Z,95434.08
2019-06-01T17:48:24.735Z,95444.41
2019-06-01T17:50:44.476Z,95437.49
2019-06-01T17:53:13.496Z,95440.05
2019-06-01T17:55:42.552Z,95441.08
2019-06-01T17:58:12.453Z,95438.72
2019-06-01T18:00:41.817Z,95438.06
2019-06-01T18:03:12.070Z,95440.78
2019-06-01T18:05:41.066Z,95433.80
2019-06-01T18:08:10.579Z,95439.78
2019-06-01T18:10:53.213Z,95436.13
2019-06-01T18:13:12.805Z,95437.11
2019-06-01T18:15:42.241Z,95433.96
2019-06-01T18:18:12.635Z,95435.58
2019-06-01T18:20:42.227Z,95438.30
2019-06-01T18:23:12.014Z,95446.52
2019-06-01T18:25:42.213Z,95438.67
2019-06-01T18:28:16.107Z,95442.27
2019-06-01T18:30:41.973Z,95443.30
2019-06-01T18:33:11.242Z,95437.41
2019-06-01T18:35:40.289Z,95442.66
2019-06-01T18:38:09.823Z,95444.59
2019-06-01T18:40:38.986Z,95438.65
2019-06-01T18:43:11.943Z,95439.86
2019-06-01T18:45:41.982Z,95441.47
2019-06-01T18:48:12.287Z,95444.98
2019-06-01T18:50:41.401Z,95444.43
2019-06-01T18:53:10.388Z,95449.19
2019-06-01T18:55:39.698Z,95445.98
2019-06-01T18:58:08.668Z,95445.13
2019-06-01T19:00:40.015Z,95446.36
2019-06-01T19:03:09.032Z,95443.14
2019-06-01T19:05:38.063Z,95441.69
2019-06-01T19:08:09.355Z,95440.52
2019-06-01T19:10:38.505Z,95440.63
2019-06-01T19:13:07.669Z,95444.47
2019-06-01T19:15:36.780Z,95441.80
2019-06-01T19:18:06.355Z,95446.86
2019-06-01T19:20:35.420Z,95445.42
2019-06-01T19:23:04.629Z,95448.52
2019-06-01T19:25:33.898Z,95440.67
2019-06-01T19:28:02.889Z,95443.59
2019-06-01T19:30:36.938Z,95448.78
2019-06-01T19:33:06.954Z,95451.85
2019-06-01T19:35:36.126Z,95452.28
2019-06-01T19:38:05.208Z,95456.17
2019-06-01T19:40:35.971Z,95455.52
2019-06-01T19:43:05.707Z,95463.12
2019-06-01T19:45:34.800Z,95464.67
2019-06-01T19:48:03.961Z,95470.22
2019-06-01T19:50:33.315Z,95465.59
2019-06-01T19:53:02.427Z,95471.30
2019-06-01T19:55:31.520Z,95469.28
2019-06-01T19:58:00.680Z,95465.86
2019-06-01T20:00:29.856Z,95459.91
2019-06-01T20:02:59.128Z,95470.86
2019-06-01T20:05:28.092Z,95467.30
2019-06-01T20:07:57.120Z,95460.83
2019-06-01T20:10:26.390Z,95457.37
2019-06-01T20:12:55.421Z,95465.89
2019-06-01T20:15:24.413Z,95460.51
2019-06-01T20:17:53.301Z,95461.14
2019-06-01T20:20:23.136Z,95458.92
2019-06-01T20:22:52.396Z,95463.91
2019-06-01T20:25:21.811Z,95464.90
2019-06-01T20:27:52.081Z,95461.31
2019-06-01T20:30:22.194Z,95454.78
2019-06-01T20:32:51.389Z,95459.36
2019-06-01T20:35:20.444Z,95457.95
2019-06-01T20:37:49.577Z,95454.84
2019-06-01T20:40:20.378Z,95456.06
2019-06-01T20:42:49.418Z,95452.81
2019-06-01T20:45:18.849Z,95450.52
2019-06-01T20:47:47.746Z,95454.28
2019-06-01T20:50:18.662Z,95451.14
2019-06-01T20:52:47.771Z,95452.41
2019-06-01T20:55:19.136Z,95454.63
2019-06-01T20:57:48.235Z,95452.02
2019-06-01T21:00:17.845Z,95456.51
2019-06-01T21:02:47.192Z,95452.91
2019-06-01T21:05:16.216Z,95456.55
2019-06-01T21:07:45.226Z,95454.26
2019-06-01T21:10:16.230Z,95449.66
2019-06-01T21:12:46.240Z,95447.99
2019-06-01T21:15:15.532Z,95440.38
2019-06-01T21:17:44.711Z,95442.05
2019-06-01T21:20:18.715Z,95447.32
2019-06-01T21:22:44.695Z,95443.94
2019-06-01T21:25:14.777Z,95440.08
2019-06-01T21:27:43.895Z,95440.63
2019-06-01T21:30:16.065Z,95441.16
2019-06-01T21:32:44.998Z,95439.66
2019-06-01T21:35:15.215Z,95437.18
2019-06-01T21:37:44.818Z,95445.98
2019-06-01T21:40:15.211Z,95441.93
2019-06-01T21:43:00.544Z,95445.55
2019-06-01T21:45:17.460Z,95435.61
2019-06-01T21:47:47.637Z,95433.30
2019-06-01T21:50:18.174Z,95434.10
2019-06-01T21:52:47.690Z,95431.43
2019-06-01T21:55:18.090Z,95434.20
2019-06-01T21:57:47.496Z,95427.55
2019-06-01T22:00:27.716Z,95432.84
2019-06-01T22:02:58.510Z,95427.91
2019-06-01T22:05:29.548Z,95426.45
2019-06-01T22:07:59.669Z,95432.55
2019-06-01T22:10:29.462Z,95432.27
2019-06-01T22:12:58.782Z,95429.31
2019-06-01T22:15:28.437Z,95424.88
2019-06-01T22:17:57.894Z,95430.91
2019-06-01T22:20:28.222Z,95426.70
2019-06-01T22:22:57.614Z,95428.09
2019-06-01T22:25:28.071Z,95421.77
2019-06-01T22:27:57.642Z,95422.00
2019-06-01T22:30:28.662Z,95418.39
2019-06-01T22:32:59.231Z,95421.45
2019-06-01T22:35:28.811Z,95421.16
2019-06-01T22:37:58.024Z,95414.72
2019-06-01T22:40:27.363Z,95410.84
2019-06-01T22:42:56.375Z,95414.19
2019-06-01T22:45:26.954Z,95412.52
2019-06-01T22:47:56.322Z,95414.91
2019-06-01T22:50:25.533Z,95404.45
2019-06-01T22:52:54.686Z,95403.97
2019-06-01T22:55:24.341Z,95402.91
2019-06-01T22:57:53.852Z,95406.39
2019-06-01T23:00:23.639Z,95404.81
2019-06-01T23:02:52.974Z,95404.00
2019-06-01T23:05:23.026Z,95400.66
2019-06-01T23:07:52.289Z,95399.81
2019-06-01T23:10:26.340Z,95393.10
2019-06-01T23:12:52.183Z,95391.88
2019-06-01T23:15:21.602Z,95387.95
2019-06-01T23:17:50.750Z,95390.68
2019-06-01T23:20:20.084Z,95385.17
2019-06-01T23:22:49.103Z,95387.20
2019-06-01T23:25:18.167Z,95382.33
2019-06-01T23:27:47.355Z,95383.52
2019-06-01T23:30:16.827Z,95378.46
2019-06-01T23:32:45.867Z,95383.80
2019-06-01T23:35:15.152Z,95384.58
2019-06-01T23:37:44.162Z,95380.08
2019-06-01T23:40:14.782Z,95385.17
2019-06-01T23:42:44.154Z,95380.43
2019-06-01T23:45:13.187Z,95375.70
2019-06-01T23:47:42.379Z,95373.69
2019-06-01T23:50:11.372Z,95372.77
2019-06-01T23:52:40.513Z,95369.50
2019-06-01T23:55:09.674Z,95363.56
2019-06-01T23:57:39.475Z,95364.55
